Time;durP1;ratioP1;P1;durP2;ratioP2;P2;SDS_P1;SDS_P2;PMS_P1;PMS_P2;Temp;Humidity;BMP_temperature;BMP_pressure;BME280_temperature;BME280_humidity;BME280_pressure;Samples;Min_cycle;Max_cycle;Signal;HPM_P1;HPM_P2
2022/03/07 00:01:28;;;;;;;5.13;1.42;;;3.30;91.70;;;;;;5111609;27;37433;-50
2022/03/07 00:03:56;;;;;;;3.78;1.20;;;3.20;91.70;;;;;;5111340;27;37624;-51
2022/03/07 00:06:24;;;;;;;5.88;1.23;;;3.20;91.90;;;;;;5103241;27;37737;-50
2022/03/07 00:08:52;;;;;;;3.97;1.50;;;3.20;91.90;;;;;;5106436;27;36587;-51
2022/03/07 00:11:20;;;;;;;5.53;1.60;;;3.10;91.90;;;;;;5111449;27;39003;-52
2022/03/07 00:13:47;;;;;;;5.57;1.33;;;3.00;91.90;;;;;;5104752;27;37623;-51
2022/03/07 00:16:15;;;;;;;7.05;1.35;;;3.00;92.20;;;;;;5110890;27;36066;-52
2022/03/07 00:18:42;;;;;;;9.50;2.25;;;2.90;92.10;;;;;;5099078;27;36923;-50
2022/03/07 00:21:10;;;;;;;7.45;2.08;;;2.90;92.20;;;;;;5111982;27;37518;-52
2022/03/07 00:23:38;;;;;;;7.38;1.52;;;2.80;92.30;;;;;;5106743;27;36273;-50
2022/03/07 00:26:06;;;;;;;5.05;1.45;;;2.80;92.40;;;;;;5102664;27;38780;-51
2022/03/07 00:28:33;;;;;;;5.88;1.60;;;2.70;92.50;;;;;;5105676;27;37247;-52
2022/03/07 00:31:01;;;;;;;4.97;1.48;;;2.70;92.60;;;;;;5105521;27;38455;-51
2022/03/07 00:33:28;;;;;;;6.70;1.45;;;2.70;92.70;;;;;;5093927;27;36344;-51
2022/03/07 00:35:56;;;;;;;4.75;1.70;;;2.70;92.70;;;;;;5104673;27;37271;-51
2022/03/07 01:00:54;;;;;;;5.20;1.40;;;2.70;92.80;;;;;;5171954;27;20430;-57
2022/03/07 01:03:21;;;;;;;4.63;1.40;;;2.50;93.00;;;;;;5159507;27;36654;-57
2022/03/07 01:05:49;;;;;;;7.03;1.80;;;2.50;93.00;;;;;;5160282;27;37252;-58
2022/03/07 01:08:16;;;;;;;5.15;2.13;;;2.50;93.10;;;;;;5162274;27;38269;-57
2022/03/07 01:10:44;;;;;;;7.10;1.73;;;2.40;93.10;;;;;;5160989;27;35888;-57
2022/03/07 01:13:11;;;;;;;5.75;1.58;;;2.40;93.30;;;;;;5163170;27;36972;-57
2022/03/07 01:15:39;;;;;;;4.97;1.65;;;2.40;93.40;;;;;;5162364;27;36428;-57
2022/03/07 01:18:07;;;;;;;3.55;1.17;;;2.40;93.60;;;;;;5162012;27;37772;-57
2022/03/07 01:20:35;;;;;;;6.25;1.30;;;2.30;93.60;;;;;;5161309;27;35780;-57
2022/03/07 01:23:02;;;;;;;4.00;1.63;;;2.30;93.70;;;;;;5160334;27;38327;-57
2022/03/07 01:25:30;;;;;;;7.28;1.67;;;2.30;93.80;;;;;;5159706;27;37504;-57
2022/03/07 01:27:57;;;;;;;9.60;1.65;;;2.30;93.70;;;;;;5160086;27;36285;-57
2022/03/07 01:30:25;;;;;;;5.10;1.63;;;2.30;93.70;;;;;;5159718;27;39585;-57
2022/03/07 01:32:53;;;;;;;6.05;1.58;;;2.20;93.70;;;;;;5161125;27;38131;-57
2022/03/07 01:35:22;;;;;;;6.10;1.52;;;2.30;93.70;;;;;;5161284;27;37263;-57
2022/03/07 01:37:49;;;;;;;5.95;1.20;;;2.20;93.80;;;;;;5160894;27;38591;-57
2022/03/07 01:40:16;;;;;;;4.50;1.67;;;2.20;93.80;;;;;;5161652;27;38294;-56
2022/03/07 01:42:43;;;;;;;5.38;1.40;;;2.30;93.80;;;;;;5161693;27;37215;-57
2022/03/07 01:45:13;;;;;;;6.50;1.40;;;2.20;93.70;;;;;;5162453;27;35161;-57
2022/03/07 01:47:40;;;;;;;3.97;1.38;;;2.20;93.80;;;;;;5161333;27;38080;-57
2022/03/07 01:50:10;;;;;;;5.63;1.20;;;2.20;93.80;;;;;;5160718;27;36012;-56
2022/03/07 01:52:41;;;;;;;7.85;1.73;;;2.20;93.90;;;;;;5160902;27;38186;-57
2022/03/07 01:55:10;;;;;;;3.97;1.40;;;2.20;94.00;;;;;;5160972;27;37161;-57
2022/03/07 01:57:39;;;;;;;4.60;1.63;;;2.20;93.90;;;;;;5161431;27;37554;-57
2022/03/07 02:00:09;;;;;;;4.43;1.42;;;2.20;93.80;;;;;;5157558;27;37252;-57
2022/03/07 02:02:37;;;;;;;2.53;1.10;;;2.20;93.80;;;;;;5147545;27;37969;-57
2022/03/07 02:05:05;;;;;;;5.47;2.25;;;2.20;93.70;;;;;;5147062;27;38672;-57
2022/03/07 02:07:32;;;;;;;5.60;1.60;;;2.20;93.70;;;;;;5147105;27;37891;-57
2022/03/07 02:10:01;;;;;;;5.28;1.35;;;2.10;93.60;;;;;;5147665;27;37954;-57
2022/03/07 02:12:28;;;;;;;5.38;1.52;;;2.10;93.40;;;;;;5146091;27;37849;-57
2022/03/07 02:14:56;;;;;;;6.82;2.22;;;2.00;93.60;;;;;;5147125;27;37137;-57
2022/03/07 02:17:23;;;;;;;4.28;1.27;;;2.00;93.70;;;;;;5146071;27;36742;-57
2022/03/07 02:19:51;;;;;;;4.28;1.90;;;2.00;93.70;;;;;;5145253;27;36991;-56
2022/03/07 02:22:19;;;;;;;5.60;1.40;;;2.00;93.70;;;;;;5147675;27;37021;-57
2022/03/07 02:24:47;;;;;;;8.02;1.50;;;1.90;94.10;;;;;;5146563;27;35375;-57
2022/03/07 02:27:18;;;;;;;4.40;1.83;;;1.90;94.00;;;;;;5146242;27;37489;-57
2022/03/07 02:29:47;;;;;;;5.30;1.67;;;2.00;93.90;;;;;;5145812;27;37142;-56
2022/03/07 02:32:15;;;;;;;4.15;1.48;;;1.90;93.80;;;;;;5147281;27;35596;-57
2022/03/07 02:34:42;;;;;;;7.10;1.48;;;1.90;93.70;;;;;;5146922;27;36601;-57
2022/03/07 02:37:10;;;;;;;3.67;1.55;;;1.90;93.70;;;;;;5146723;27;38027;-57
2022/03/07 02:39:38;;;;;;;6.88;1.40;;;1.90;93.70;;;;;;5147106;27;35710;-57
2022/03/07 02:42:06;;;;;;;5.03;1.38;;;1.90;93.60;;;;;;5146264;27;35696;-57
2022/03/07 02:44:33;;;;;;;3.95;1.35;;;1.90;93.50;;;;;;5145266;27;36091;-57
2022/03/07 02:47:01;;;;;;;3.72;1.35;;;1.90;93.50;;;;;;5144961;27;39033;-57
2022/03/07 02:49:28;;;;;;;6.20;1.60;;;1.90;93.60;;;;;;5146051;27;35842;-57
2022/03/07 02:51:55;;;;;;;2.50;1.30;;;1.90;93.70;;;;;;5144549;27;36845;-57
2022/03/07 02:54:23;;;;;;;6.40;1.55;;;1.80;93.70;;;;;;5146028;27;37167;-57
2022/03/07 02:56:51;;;;;;;6.05;1.73;;;1.80;93.90;;;;;;5146215;27;37454;-57
2022/03/07 02:59:19;;;;;;;4.30;1.50;;;1.80;94.00;;;;;;5146257;27;36027;-57
2022/03/07 03:01:47;;;;;;;6.35;2.85;;;1.80;93.80;;;;;;5146203;27;36857;-57
2022/03/07 03:04:14;;;;;;;6.10;1.83;;;1.80;93.70;;;;;;5146661;27;36343;-57
2022/03/07 03:06:42;;;;;;;4.57;1.70;;;1.80;93.70;;;;;;5146360;27;37502;-57
2022/03/07 03:09:10;;;;;;;5.25;2.05;;;1.70;93.70;;;;;;5145702;27;37225;-57
2022/03/07 03:11:37;;;;;;;5.20;1.98;;;1.70;93.70;;;;;;5145877;27;37733;-57
2022/03/07 03:14:06;;;;;;;6.85;1.77;;;1.70;93.80;;;;;;5145799;27;36989;-57
2022/03/07 03:16:34;;;;;;;3.40;1.42;;;1.70;94.10;;;;;;5145762;27;37573;-57
2022/03/07 03:19:02;;;;;;;4.82;1.70;;;1.70;93.90;;;;;;5146124;27;37145;-57
2022/03/07 03:21:30;;;;;;;4.63;1.90;;;1.70;93.90;;;;;;5145788;27;38791;-57
2022/03/07 03:23:57;;;;;;;6.40;2.13;;;1.70;93.90;;;;;;5145786;27;35106;-57
2022/03/07 03:26:25;;;;;;;5.13;1.70;;;1.70;93.90;;;;;;5145929;27;38024;-57
2022/03/07 03:28:52;;;;;;;6.28;1.80;;;1.60;93.90;;;;;;5145764;27;37481;-56
2022/03/07 03:31:21;;;;;;;7.97;2.08;;;1.60;93.90;;;;;;5145779;27;36992;-57
2022/03/07 03:33:49;;;;;;;7.45;2.00;;;1.50;93.90;;;;;;5146883;27;36711;-57
2022/03/07 03:36:17;;;;;;;7.65;2.72;;;1.50;94.10;;;;;;5146083;27;36210;-57
2022/03/07 03:38:44;;;;;;;5.18;1.65;;;1.50;94.20;;;;;;5145841;27;37213;-57
2022/03/07 03:41:11;;;;;;;9.93;2.00;;;1.50;94.20;;;;;;5146029;27;37747;-57
2022/03/07 03:43:39;;;;;;;8.30;2.92;;;1.50;94.20;;;;;;5146254;27;34376;-57
2022/03/07 03:46:06;;;;;;;6.68;1.77;;;1.50;94.00;;;;;;5145444;27;37416;-57
2022/03/07 03:48:35;;;;;;;6.82;2.13;;;1.50;93.90;;;;;;5145816;27;36953;-57
2022/03/07 03:51:02;;;;;;;8.90;1.90;;;1.50;94.00;;;;;;5145444;27;36739;-57
2022/03/07 03:53:29;;;;;;;8.48;1.98;;;1.50;94.00;;;;;;5144569;27;37910;-57
2022/03/07 03:55:57;;;;;;;6.00;1.60;;;1.50;94.00;;;;;;5145679;27;37766;-57
2022/03/07 03:58:24;;;;;;;3.72;1.52;;;1.40;94.10;;;;;;5142370;27;35725;-57
2022/03/07 04:00:52;;;;;;;6.32;1.73;;;1.50;94.20;;;;;;5144393;27;40275;-57
2022/03/07 04:03:20;;;;;;;6.65;1.58;;;1.40;94.10;;;;;;5144993;27;37130;-57
2022/03/07 04:05:48;;;;;;;6.45;1.65;;;1.40;94.20;;;;;;5144583;27;37309;-57
2022/03/07 04:08:16;;;;;;;3.72;1.70;;;1.40;94.20;;;;;;5143122;27;37254;-57
2022/03/07 04:10:43;;;;;;;7.57;1.92;;;1.40;94.20;;;;;;5143631;27;35470;-57
2022/03/07 04:13:10;;;;;;;2.92;1.40;;;1.40;94.30;;;;;;5142879;27;36512;-57
2022/03/07 04:15:38;;;;;;;4.85;1.63;;;1.40;94.30;;;;;;5144262;27;38317;-57
2022/03/07 04:18:06;;;;;;;5.05;1.52;;;1.40;94.30;;;;;;5143639;27;35858;-56
2022/03/07 04:20:34;;;;;;;4.55;1.63;;;1.40;94.20;;;;;;5144664;27;35650;-57
2022/03/07 04:23:04;;;;;;;5.90;2.00;;;1.30;94.30;;;;;;5144386;27;36522;-56
2022/03/07 04:25:33;;;;;;;4.32;1.60;;;1.30;94.30;;;;;;5143408;27;36191;-57
2022/03/07 04:28:01;;;;;;;4.22;1.63;;;1.20;94.40;;;;;;5144398;27;37248;-56
2022/03/07 04:30:28;;;;;;;3.95;1.60;;;1.20;94.40;;;;;;5142796;27;36584;-57
2022/03/07 04:32:55;;;;;;;3.35;1.50;;;1.10;94.40;;;;;;5145545;27;36768;-57
2022/03/07 04:35:23;;;;;;;4.72;1.80;;;1.10;94.40;;;;;;5144924;27;37955;-57
2022/03/07 04:37:50;;;;;;;4.55;1.73;;;1.10;94.60;;;;;;5144331;27;35866;-58
2022/03/07 04:40:19;;;;;;;5.97;1.40;;;1.10;94.80;;;;;;5146018;27;36816;-57
2022/03/07 04:42:46;;;;;;;7.10;2.17;;;1.10;94.70;;;;;;5148052;27;36592;-57
2022/03/07 04:45:15;;;;;;;4.20;1.67;;;1.10;94.70;;;;;;5146854;27;37638;-57
2022/03/07 04:47:42;;;;;;;6.75;1.67;;;1.10;94.60;;;;;;5147635;27;39053;-57
2022/03/07 04:50:12;;;;;;;3.75;1.52;;;1.10;94.70;;;;;;5145679;27;36957;-57
2022/03/07 04:52:41;;;;;;;6.03;1.52;;;1.10;94.70;;;;;;5146706;27;36756;-57
2022/03/07 04:55:10;;;;;;;4.28;1.88;;;1.10;94.70;;;;;;5146740;27;38449;-57
2022/03/07 04:57:39;;;;;;;4.20;1.90;;;1.10;94.80;;;;;;5146256;27;36520;-57
2022/03/07 05:00:10;;;;;;;7.70;1.90;;;1.10;94.90;;;;;;5145303;27;37600;-57
2022/03/07 05:02:37;;;;;;;5.15;1.88;;;1.20;94.90;;;;;;5146926;27;36554;-58
2022/03/07 05:05:05;;;;;;;4.40;1.63;;;1.20;94.70;;;;;;5146148;27;38707;-57
2022/03/07 05:07:32;;;;;;;7.40;3.78;;;1.20;94.70;;;;;;5146804;27;36130;-57
2022/03/07 05:10:00;;;;;;;9.45;3.53;;;1.20;94.50;;;;;;5147001;27;36283;-57
2022/03/07 05:12:27;;;;;;;7.53;2.85;;;0.80;94.40;;;;;;5146117;27;37421;-57
2022/03/07 05:14:56;;;;;;;7.55;2.90;;;1.10;94.80;;;;;;5146941;27;36250;-57
2022/03/07 05:17:23;;;;;;;4.78;2.13;;;1.10;94.60;;;;;;5145678;27;38732;-57
2022/03/07 05:19:50;;;;;;;4.90;2.20;;;1.10;94.50;;;;;;5146356;27;37166;-56
2022/03/07 05:22:18;;;;;;;7.80;2.10;;;1.10;94.50;;;;;;5146251;27;36788;-57
2022/03/07 05:24:45;;;;;;;5.28;1.67;;;1.10;94.50;;;;;;5144177;27;38861;-57
2022/03/07 05:27:12;;;;;;;3.65;1.70;;;1.10;94.50;;;;;;5144683;27;38018;-57
2022/03/07 05:29:40;;;;;;;10.60;2.13;;;1.10;94.40;;;;;;5144735;27;36689;-57
2022/03/07 05:32:09;;;;;;;6.70;2.30;;;1.10;94.40;;;;;;5144500;27;35043;-57
2022/03/07 05:34:37;;;;;;;7.22;1.85;;;1.10;94.40;;;;;;5144905;27;36228;-57
2022/03/07 05:37:04;;;;;;;4.60;2.08;;;1.10;94.40;;;;;;5147990;27;37690;-57
2022/03/07 05:39:31;;;;;;;8.45;2.50;;;1.10;94.50;;;;;;5149058;27;37222;-57
2022/03/07 05:41:59;;;;;;;6.10;2.13;;;1.10;94.60;;;;;;5149906;27;36241;-57
2022/03/07 05:44:26;;;;;;;4.10;1.88;;;1.10;94.60;;;;;;5149398;27;37409;-57
2022/03/07 05:46:53;;;;;;;5.43;1.73;;;1.10;94.50;;;;;;5148618;27;38305;-57
2022/03/07 05:49:22;;;;;;;4.85;1.90;;;1.10;94.40;;;;;;5149478;27;37778;-57
2022/03/07 05:51:49;;;;;;;6.35;2.25;;;1.10;94.30;;;;;;5149505;27;36153;-57
2022/03/07 05:54:17;;;;;;;4.03;1.88;;;1.10;94.30;;;;;;5149766;27;38291;-57
2022/03/07 05:56:44;;;;;;;6.13;1.80;;;1.10;94.20;;;;;;5149419;27;35953;-57
2022/03/07 05:59:11;;;;;;;2.55;1.20;;;1.10;94.50;;;;;;5147570;27;37141;-57
2022/03/07 06:01:39;;;;;;;3.08;1.45;;;1.10;94.70;;;;;;5147281;27;37521;-57
2022/03/07 06:04:06;;;;;;;6.30;1.33;;;1.00;95.00;;;;;;5148716;27;36202;-57
2022/03/07 06:06:35;;;;;;;5.03;1.83;;;1.10;95.00;;;;;;5148785;27;38084;-58
2022/03/07 06:09:02;;;;;;;5.53;1.38;;;1.00;94.90;;;;;;5147876;27;37483;-57
2022/03/07 06:11:29;;;;;;;7.68;1.92;;;1.00;95.00;;;;;;5148139;27;36772;-57
2022/03/07 06:13:57;;;;;;;6.35;1.70;;;1.10;95.30;;;;;;5147968;27;37660;-57
2022/03/07 06:16:24;;;;;;;4.10;1.80;;;1.30;95.40;;;;;;5148418;27;37111;-57
2022/03/07 06:18:51;;;;;;;4.35;1.80;;;1.10;95.60;;;;;;5147999;27;35818;-57
2022/03/07 06:21:19;;;;;;;5.57;2.03;;;1.20;95.80;;;;;;5146784;27;35416;-57
2022/03/07 06:23:47;;;;;;;4.32;1.88;;;1.30;95.60;;;;;;5148374;27;37477;-57
2022/03/07 06:26:14;;;;;;;5.20;1.98;;;1.40;95.50;;;;;;5147471;27;38323;-57
2022/03/07 06:28:42;;;;;;;10.52;2.75;;;1.50;95.20;;;;;;5148050;27;35599;-57
2022/03/07 06:31:09;;;;;;;11.40;2.83;;;1.70;94.80;;;;;;5146304;27;36454;-57
2022/03/07 06:33:37;;;;;;;7.60;2.80;;;1.70;94.60;;;;;;5148341;27;37419;-57
2022/03/07 06:36:05;;;;;;;7.78;2.55;;;1.80;94.80;;;;;;5147899;27;37236;-57
2022/03/07 06:38:33;;;;;;;8.30;2.80;;;2.00;94.80;;;;;;5147317;27;38527;-57
2022/03/07 06:41:02;;;;;;;6.20;2.33;;;2.00;94.60;;;;;;5146995;27;36529;-57
2022/03/07 06:43:29;;;;;;;9.88;2.85;;;2.00;94.70;;;;;;5147552;27;38443;-57
2022/03/07 06:45:56;;;;;;;4.60;2.13;;;2.00;94.80;;;;;;5146343;27;37269;-57
2022/03/07 06:48:24;;;;;;;7.78;2.35;;;2.10;95.00;;;;;;5147787;27;38609;-57
2022/03/07 06:50:51;;;;;;;6.40;2.35;;;2.20;95.30;;;;;;5147256;27;36392;-57
2022/03/07 06:53:18;;;;;;;6.80;2.63;;;2.10;95.10;;;;;;5147338;27;37441;-58
2022/03/07 06:55:46;;;;;;;5.78;2.38;;;2.20;95.50;;;;;;5147312;27;37173;-57
2022/03/07 06:58:14;;;;;;;6.50;2.20;;;2.30;95.40;;;;;;5146036;27;35851;-57
2022/03/07 07:00:42;;;;;;;6.38;2.53;;;2.30;95.70;;;;;;5146742;27;36770;-56
2022/03/07 07:03:09;;;;;;;7.25;2.65;;;2.40;95.90;;;;;;5147159;27;37683;-57
2022/03/07 07:05:36;;;;;;;10.15;3.00;;;2.50;95.90;;;;;;5145292;27;38910;-57
2022/03/07 07:08:04;;;;;;;8.98;3.85;;;2.60;96.10;;;;;;5146478;27;37506;-58
2022/03/07 07:10:31;;;;;;;6.78;2.83;;;2.80;96.10;;;;;;5146829;27;37036;-57
2022/03/07 07:12:59;;;;;;;9.05;2.92;;;3.00;96.10;;;;;;5146146;27;37949;-57
2022/03/07 07:15:27;;;;;;;7.65;2.75;;;3.20;96.00;;;;;;5144925;27;37707;-57
2022/03/07 07:17:55;;;;;;;6.53;2.83;;;3.40;95.80;;;;;;5145949;27;37887;-57
2022/03/07 07:20:22;;;;;;;6.40;2.70;;;3.50;95.70;;;;;;5146084;27;38922;-57
2022/03/07 07:22:49;;;;;;;10.20;3.15;;;3.70;95.50;;;;;;5145584;27;38753;-57
2022/03/07 07:25:16;;;;;;;8.07;3.20;;;3.90;95.50;;;;;;5144904;27;36037;-57
2022/03/07 07:27:44;;;;;;;7.25;2.97;;;4.00;95.10;;;;;;5145858;27;36903;-57
2022/03/07 07:30:12;;;;;;;9.98;3.15;;;4.00;95.20;;;;;;5145442;27;36426;-57
2022/03/07 07:32:41;;;;;;;6.60;2.90;;;4.10;95.50;;;;;;5145410;27;37638;-57
2022/03/07 07:35:10;;;;;;;11.18;3.22;;;4.20;95.40;;;;;;5146693;27;37791;-57
2022/03/07 07:37:37;;;;;;;8.23;3.05;;;4.40;95.20;;;;;;5137340;27;37716;-57
2022/03/07 07:40:07;;;;;;;8.25;3.10;;;4.40;95.10;;;;;;5139483;27;37654;-57
2022/03/07 07:42:35;;;;;;;7.72;3.50;;;4.50;95.20;;;;;;5140164;27;37798;-57
2022/03/07 07:45:02;;;;;;;10.57;2.97;;;4.60;95.00;;;;;;5141204;27;37915;-57
2022/03/07 07:47:29;;;;;;;9.70;2.88;;;4.60;94.90;;;;;;5141591;27;33685;-57
2022/03/07 07:49:58;;;;;;;6.57;3.10;;;4.60;95.00;;;;;;5142293;27;36500;-57
2022/03/07 07:52:25;;;;;;;7.60;2.55;;;4.70;95.20;;;;;;5142010;27;37101;-57
2022/03/07 07:54:53;;;;;;;7.68;2.53;;;4.80;95.30;;;;;;5140805;27;39010;-57
2022/03/07 07:57:20;;;;;;;10.15;3.00;;;4.80;95.40;;;;;;5141544;27;35616;-57
2022/03/07 07:59:47;;;;;;;5.93;2.40;;;4.80;95.60;;;;;;5140630;27;37409;-57
2022/03/07 08:02:15;;;;;;;6.72;3.13;;;4.90;95.70;;;;;;5141835;27;37325;-57
2022/03/07 08:04:42;;;;;;;9.18;2.72;;;5.00;95.80;;;;;;5142191;27;36813;-57
2022/03/07 08:07:11;;;;;;;8.45;2.97;;;5.00;95.80;;;;;;5142219;27;38313;-57
2022/03/07 08:09:38;;;;;;;8.07;3.30;;;5.10;96.10;;;;;;5141801;27;37582;-57
2022/03/07 08:12:06;;;;;;;9.20;3.38;;;5.30;96.40;;;;;;5135522;27;37851;-57
2022/03/07 08:14:33;;;;;;;8.38;2.90;;;5.60;96.00;;;;;;5139045;27;35930;-57
2022/03/07 08:17:01;;;;;;;9.07;3.30;;;5.80;95.40;;;;;;5138693;27;37341;-57
2022/03/07 08:19:28;;;;;;;13.55;3.38;;;6.10;95.30;;;;;;5140758;27;36223;-57
2022/03/07 08:21:55;;;;;;;8.30;2.90;;;6.30;95.00;;;;;;5141411;27;39046;-57
2022/03/07 08:24:24;;;;;;;8.77;3.55;;;6.50;94.90;;;;;;5140303;27;39183;-57
2022/03/07 08:26:51;;;;;;;10.63;4.07;;;6.70;94.40;;;;;;5140817;27;37135;-57
2022/03/07 08:29:19;;;;;;;11.13;3.97;;;7.10;93.50;;;;;;5140404;27;35365;-57
2022/03/07 08:31:46;;;;;;;10.20;2.90;;;7.60;92.80;;;;;;5139208;27;38820;-58
2022/03/07 08:34:13;;;;;;;8.38;3.08;;;7.90;91.70;;;;;;5141239;27;37829;-57
2022/03/07 08:36:41;;;;;;;10.15;4.10;;;8.10;90.90;;;;;;5138742;27;35420;-57
2022/03/07 08:39:08;;;;;;;10.70;6.05;;;8.50;90.00;;;;;;5140770;27;36998;-58
2022/03/07 08:41:37;;;;;;;13.13;5.35;;;9.00;86.70;;;;;;5139989;27;38086;-58
2022/03/07 08:44:04;;;;;;;10.32;3.72;;;9.50;83.10;;;;;;5138686;27;37155;-58
2022/03/07 08:46:32;;;;;;;11.95;3.03;;;10.00;80.70;;;;;;5139543;27;38343;-58
2022/03/07 08:48:59;;;;;;;9.05;2.90;;;10.20;79.10;;;;;;5138647;27;36374;-58
2022/03/07 08:51:26;;;;;;;8.00;2.40;;;10.20;79.00;;;;;;5137782;27;37840;-58
2022/03/07 08:53:53;;;;;;;5.53;2.03;;;10.10;79.10;;;;;;5139816;27;37746;-57
2022/03/07 08:56:21;;;;;;;6.50;2.35;;;10.10;79.10;;;;;;5140610;27;37378;-58
2022/03/07 08:58:50;;;;;;;6.20;2.25;;;10.20;78.20;;;;;;5137757;27;35149;-58
2022/03/07 09:01:18;;;;;;;9.70;2.38;;;10.40;76.70;;;;;;5137533;27;36289;-58
2022/03/07 09:03:46;;;;;;;6.55;1.98;;;10.60;76.10;;;;;;5138176;27;36623;-58
2022/03/07 09:06:13;;;;;;;6.03;1.98;;;10.90;73.90;;;;;;5140948;27;36567;-58
2022/03/07 09:08:41;;;;;;;7.43;2.05;;;11.30;72.00;;;;;;5138786;27;36750;-58
2022/03/07 09:11:08;;;;;;;9.60;2.42;;;11.60;70.30;;;;;;5141017;27;38176;-58
2022/03/07 09:13:35;;;;;;;5.38;1.60;;;11.90;68.20;;;;;;5140804;27;37376;-58
2022/03/07 09:16:05;;;;;;;6.28;1.58;;;12.10;66.20;;;;;;5142800;27;37366;-59
2022/03/07 09:18:32;;;;;;;6.07;1.80;;;12.30;64.60;;;;;;5141722;27;37214;-56
2022/03/07 09:20:59;;;;;;;5.30;1.60;;;12.50;63.70;;;;;;5141401;27;37554;-56
2022/03/07 09:23:33;;;;;;;3.92;1.58;;;12.70;63.00;;;;;;5142303;27;36856;-56
2022/03/07 09:26:00;;;;;;;5.15;1.35;;;12.90;62.60;;;;;;5142179;27;38291;-55
2022/03/07 09:28:27;;;;;;;7.20;1.70;;;12.80;62.10;;;;;;5141427;27;35361;-55
2022/03/07 09:30:55;;;;;;;8.18;1.98;;;12.70;63.00;;;;;;5141503;27;37642;-56
2022/03/07 09:33:24;;;;;;;3.60;1.45;;;12.40;63.80;;;;;;5141360;27;36680;-55
2022/03/07 09:35:51;;;;;;;6.78;2.10;;;12.20;64.10;;;;;;5135798;27;37382;-58
2022/03/07 09:38:18;;;;;;;6.10;1.55;;;12.30;64.50;;;;;;5140799;27;35428;-56
2022/03/07 09:40:46;;;;;;;6.80;1.67;;;12.40;63.60;;;;;;5140195;27;43017;-56
2022/03/07 09:43:14;;;;;;;5.90;1.45;;;12.70;63.10;;;;;;5141825;27;37966;-56
2022/03/07 09:45:42;;;;;;;4.57;1.42;;;12.80;62.00;;;;;;5142864;27;37004;-56
2022/03/07 09:48:11;;;;;;;8.48;1.90;;;12.90;61.70;;;;;;5142973;27;35502;-56
2022/03/07 09:50:40;;;;;;;5.70;1.73;;;13.20;61.20;;;;;;5143623;27;38516;-56
2022/03/07 09:53:08;;;;;;;4.63;1.80;;;13.30;60.40;;;;;;5141515;27;37844;-56
2022/03/07 09:55:36;;;;;;;6.65;1.52;;;13.50;60.00;;;;;;5140971;27;37231;-56
2022/03/07 09:58:05;;;;;;;7.13;1.90;;;13.50;59.40;;;;;;5139658;27;36898;-56
2022/03/07 10:00:33;;;;;;;8.68;1.63;;;13.50;59.30;;;;;;5140575;27;38271;-56
2022/03/07 10:03:04;;;;;;;7.10;1.63;;;13.40;59.10;;;;;;5140027;27;37292;-56
2022/03/07 10:05:35;;;;;;;6.00;1.42;;;13.40;59.40;;;;;;5141018;27;36809;-56
2022/03/07 10:08:04;;;;;;;5.68;1.42;;;13.30;58.70;;;;;;5140598;27;36616;-56
2022/03/07 10:10:33;;;;;;;9.90;2.00;;;13.30;58.70;;;;;;5141880;27;39009;-56
2022/03/07 10:13:06;;;;;;;5.97;1.73;;;13.50;58.90;;;;;;5141031;27;36270;-56
2022/03/07 10:15:34;;;;;;;5.20;1.27;;;13.70;57.70;;;;;;5141643;27;37644;-56
2022/03/07 10:18:01;;;;;;;7.47;1.20;;;13.90;57.20;;;;;;5141755;27;38382;-56
2022/03/07 10:20:29;;;;;;;6.70;1.55;;;14.10;56.00;;;;;;5141630;27;36393;-56
2022/03/07 10:22:58;;;;;;;9.90;1.90;;;14.40;55.40;;;;;;5142006;27;36622;-56
2022/03/07 10:25:28;;;;;;;5.05;1.40;;;14.70;54.30;;;;;;5142793;27;37771;-56
2022/03/07 10:27:57;;;;;;;4.40;1.02;;;15.00;53.30;;;;;;5142372;27;36926;-56
2022/03/07 10:30:27;;;;;;;3.65;0.95;;;15.20;52.60;;;;;;5142742;27;37705;-56
2022/03/07 10:32:56;;;;;;;5.28;1.27;;;15.20;52.20;;;;;;5144062;27;36105;-56
2022/03/07 10:35:27;;;;;;;8.60;1.65;;;14.90;52.20;;;;;;5141438;27;37953;-55
2022/03/07 10:37:59;;;;;;;6.15;1.30;;;14.50;52.60;;;;;;5142166;27;35272;-56
2022/03/07 10:40:30;;;;;;;3.85;1.13;;;14.30;53.60;;;;;;5142705;27;38859;-56
2022/03/07 10:43:00;;;;;;;4.85;1.10;;;14.30;54.00;;;;;;5142829;27;35919;-56
2022/03/07 10:45:29;;;;;;;6.82;1.50;;;14.40;53.80;;;;;;5141512;27;37097;-56
2022/03/07 10:47:59;;;;;;;4.65;1.40;;;14.50;53.00;;;;;;5142578;27;36895;-56
2022/03/07 10:50:29;;;;;;;4.00;0.90;;;14.50;52.50;;;;;;5140713;27;38702;-56
2022/03/07 10:53:01;;;;;;;5.20;1.30;;;14.30;52.50;;;;;;5140561;27;37786;-56
2022/03/07 10:55:31;;;;;;;4.47;0.95;;;14.20;53.80;;;;;;5142231;27;37774;-56
2022/03/07 10:58:06;;;;;;;5.40;1.30;;;14.10;53.90;;;;;;5143234;27;36534;-56
2022/03/07 11:00:34;;;;;;;8.30;1.50;;;14.00;54.40;;;;;;5140992;27;38025;-56
2022/03/07 11:03:02;;;;;;;6.35;1.23;;;13.90;55.00;;;;;;5141849;27;36994;-56
2022/03/07 11:05:29;;;;;;;4.70;1.33;;;13.90;54.70;;;;;;5142268;27;35908;-56
2022/03/07 11:07:57;;;;;;;7.40;2.03;;;13.90;53.20;;;;;;5142690;27;36588;-56
2022/03/07 11:10:24;;;;;;;4.40;1.27;;;14.10;51.50;;;;;;5141760;27;38594;-56
2022/03/07 11:12:53;;;;;;;9.57;1.58;;;14.30;50.60;;;;;;5141437;27;37596;-56
2022/03/07 11:15:21;;;;;;;3.65;1.10;;;14.50;49.90;;;;;;5142855;27;37187;-56
2022/03/07 11:17:49;;;;;;;4.45;1.35;;;14.60;49.60;;;;;;5142925;27;36540;-56
2022/03/07 11:20:18;;;;;;;7.13;1.50;;;14.70;49.80;;;;;;5140112;27;39576;-56
2022/03/07 11:22:45;;;;;;;4.90;1.60;;;14.80;49.70;;;;;;5141591;27;36121;-56
2022/03/07 11:25:16;;;;;;;4.38;1.38;;;14.80;48.40;;;;;;5140450;27;37565;-56
2022/03/07 11:27:44;;;;;;;3.80;1.10;;;14.30;48.00;;;;;;5141364;27;37834;-56
2022/03/07 11:30:20;;;;;;;3.22;1.10;;;13.80;48.30;;;;;;5140923;27;38663;-56
2022/03/07 11:32:51;;;;;;;5.43;1.63;;;13.20;49.30;;;;;;5140308;27;34968;-56
2022/03/07 11:35:19;;;;;;;3.78;1.40;;;13.10;50.70;;;;;;5139506;27;37231;-56
2022/03/07 11:37:46;;;;;;;5.35;1.63;;;13.30;50.00;;;;;;5140277;27;38262;-56
2022/03/07 11:40:19;;;;;;;4.75;1.38;;;13.80;49.10;;;;;;5141310;27;36255;-56
2022/03/07 11:42:47;;;;;;;6.18;2.03;;;14.70;46.40;;;;;;5140199;27;37316;-56
2022/03/07 11:45:18;;;;;;;4.85;1.40;;;15.50;44.70;;;;;;5140849;27;38465;-56
2022/03/07 11:47:47;;;;;;;6.32;1.25;;;15.50;44.40;;;;;;5141460;27;36418;-56
2022/03/07 11:50:18;;;;;;;5.38;1.50;;;15.00;45.40;;;;;;5141219;27;36310;-56
2022/03/07 11:52:46;;;;;;;4.35;1.05;;;14.70;45.40;;;;;;5140500;27;36132;-56
2022/03/07 11:55:16;;;;;;;7.35;1.48;;;14.40;46.00;;;;;;5140315;27;37642;-55
2022/03/07 11:57:45;;;;;;;3.65;1.10;;;14.40;47.60;;;;;;5139441;27;38848;-56
2022/03/07 12:00:17;;;;;;;4.60;1.17;;;14.10;45.10;;;;;;5138378;27;36168;-56
2022/03/07 12:02:48;;;;;;;7.75;1.60;;;14.10;45.60;;;;;;5138758;27;36918;-56
2022/03/07 12:05:24;;;;;;;7.13;1.65;;;13.80;45.20;;;;;;5139287;27;36767;-56
2022/03/07 12:07:52;;;;;;;2.72;0.95;;;13.40;46.80;;;;;;5140519;27;35371;-55
2022/03/07 12:10:20;;;;;;;4.55;1.30;;;13.00;46.20;;;;;;5140493;27;39282;-56
2022/03/07 12:12:47;;;;;;;5.63;1.00;;;12.80;45.90;;;;;;5140258;27;39251;-55
2022/03/07 12:15:15;;;;;;;2.40;1.10;;;12.70;45.70;;;;;;5140198;27;37247;-56
2022/03/07 12:17:43;;;;;;;5.93;1.27;;;12.80;45.50;;;;;;5141098;27;36587;-56
2022/03/07 12:20:12;;;;;;;4.65;1.00;;;12.80;45.60;;;;;;5139947;27;40456;-56
2022/03/07 12:22:40;;;;;;;3.92;1.27;;;12.80;44.20;;;;;;5138652;27;35906;-56
2022/03/07 12:25:09;;;;;;;5.28;1.38;;;12.90;44.20;;;;;;5139762;27;39910;-56
2022/03/07 12:27:39;;;;;;;2.63;1.08;;;12.80;45.00;;;;;;5139072;27;38049;-56
2022/03/07 12:30:08;;;;;;;3.22;1.20;;;12.70;46.20;;;;;;5139278;27;37583;-56
2022/03/07 12:32:37;;;;;;;1.75;0.60;;;12.50;45.80;;;;;;5139668;27;36864;-56
2022/03/07 12:35:05;;;;;;;1.98;0.68;;;12.20;44.60;;;;;;5137242;27;36792;-56
2022/03/07 12:37:33;;;;;;;2.95;0.90;;;11.90;45.70;;;;;;5136346;27;36943;-56
2022/03/07 12:40:03;;;;;;;5.18;0.77;;;11.70;45.90;;;;;;5136139;27;37778;-56
2022/03/07 12:42:32;;;;;;;2.40;0.60;;;11.60;45.90;;;;;;5139094;27;36274;-56
2022/03/07 12:45:01;;;;;;;3.70;1.15;;;11.50;45.70;;;;;;5138058;27;37091;-56
2022/03/07 12:47:29;;;;;;;4.18;1.48;;;11.60;46.50;;;;;;5140599;27;36591;-56
2022/03/07 12:49:56;;;;;;;4.18;1.10;;;11.60;47.50;;;;;;5139725;27;37350;-56
2022/03/07 12:52:26;;;;;;;5.32;0.93;;;11.60;48.40;;;;;;5135253;27;36910;-56
2022/03/07 12:54:56;;;;;;;5.47;1.23;;;11.50;47.80;;;;;;5138980;27;37812;-56
2022/03/07 12:57:24;;;;;;;2.97;0.73;;;11.50;48.80;;;;;;5137971;27;38123;-56
2022/03/07 12:59:57;;;;;;;3.83;1.05;;;11.50;49.90;;;;;;5139421;27;37602;-55
2022/03/07 13:02:25;;;;;;;3.17;0.80;;;11.40;48.60;;;;;;5138255;27;38087;-56
2022/03/07 13:04:56;;;;;;;4.47;1.02;;;11.30;48.80;;;;;;5139975;27;36716;-56
2022/03/07 13:07:25;;;;;;;3.25;1.05;;;11.20;48.60;;;;;;5139011;27;36058;-56
2022/03/07 13:09:54;;;;;;;2.83;0.95;;;11.10;48.80;;;;;;5139271;27;37116;-56
2022/03/07 13:12:22;;;;;;;2.75;0.95;;;11.00;49.40;;;;;;5138270;27;37841;-56
2022/03/07 13:14:49;;;;;;;5.45;1.10;;;11.00;48.10;;;;;;5138340;27;37915;-58
2022/03/07 13:17:18;;;;;;;4.13;1.50;;;10.90;48.50;;;;;;5138023;27;37374;-58
2022/03/07 13:19:49;;;;;;;6.60;1.42;;;10.80;48.20;;;;;;5138332;27;37727;-58